LiveATC.Net - Listen to live air traffic control over the Internet! Contact for advertising information

ICAO: SCJO  IATA: ZOS   Airport: Canal Bajo Carlos Hott Siebert Airport
City: Osorno
Country: Chile   Continent: South America
SCJO METAR Weather: SCJO 282200Z 18010KT CAVOK 19/08 Q1022
SCJO Flight Activity (FlightAware)
SCJO Gnd/Twr
Feed Status: UP   Listeners: 2
Listen right in your browser - requires Flash (in browser, requires Flash)
Click here to listen with your own player (launches your MP3 player)
SCJO Gnd/Twr Audio Archives
Osorno Ground121.700
Osorno Tower118.900

Sponsored by: Serticom


Unauthorized use prohibited. See Terms of Service

Find LiveATC Audio Streams

Airport/ARTCC Code

(e.g., 124.400, 128.75)
Site-wide search

Browse LiveATC Feeds
LiveATC Coverage Map
Top 50 LiveATC Feeds
Bad Weather Areas

Offer a LiveATC Feed
Press Inquiries

LiveATC on iPhone
LiveATC on Android

Windows Phone
Windows 8/10

LiveATC Mobile
(Mobile browser)

ATC Audio Archives
Interesting Recordings

LiveATC Forums

Home Page
Make a Donation
LiveATC Bookstore

Terms of Use
Privacy Policy

ATC/Radar Sites
U.S. ARTCC Freqs
Canadian Air Freqs


FAA Airport Status
Nat'l Airspace Status
Arrival Demand Charts

Server Software By:

Please make a donation to help us keep growing!